createdAt,value
2018-12-27T00:00:17.656Z,4.23
2018-12-27T00:01:16.189Z,4.18
2018-12-27T00:03:49.728Z,4.18
2018-12-27T00:04:48.244Z,4.2
2018-12-27T00:05:47.040Z,4.23
2018-12-27T00:06:45.807Z,4.26
2018-12-27T00:07:44.334Z,4.12
2018-12-27T00:08:42.874Z,4.09
2018-12-27T00:09:41.462Z,4.2
2018-12-27T00:10:40.061Z,4.18
2018-12-27T00:11:38.733Z,4.24
2018-12-27T00:12:37.462Z,4.2
2018-12-27T00:13:36.023Z,4.15
2018-12-27T00:14:34.578Z,4.02
2018-12-27T00:15:33.224Z,4.18
2018-12-27T00:16:32.304Z,4.16
2018-12-27T00:17:30.321Z,4.23
2018-12-27T00:18:29.025Z,4.27
2018-12-27T00:19:27.613Z,4.34
2018-12-27T00:20:26.160Z,4.36
2018-12-27T00:21:24.901Z,4.36
2018-12-27T00:22:23.546Z,4.37
2018-12-27T00:23:22.082Z,4.29
2018-12-27T00:24:20.643Z,4.4
2018-12-27T00:25:20.449Z,4.36
2018-12-27T00:26:17.919Z,4.36
2018-12-27T00:27:16.491Z,4.37
2018-12-27T00:28:15.149Z,4.34
2018-12-27T00:29:13.652Z,4.24
2018-12-27T00:30:12.186Z,4.22
2018-12-27T00:31:10.722Z,4.26
2018-12-27T00:32:09.262Z,4.26
2018-12-27T00:33:07.740Z,4.26
2018-12-27T00:34:06.301Z,4
2018-12-27T00:35:04.951Z,4.11
2018-12-27T00:36:03.508Z,3.97
2018-12-27T00:37:02.102Z,4.05
2018-12-27T00:38:00.660Z,4.15
2018-12-27T00:38:59.518Z,4.09
2018-12-27T00:39:58.081Z,4.24
2018-12-27T00:40:56.768Z,4.27
2018-12-27T00:41:55.315Z,4.29
2018-12-27T00:42:53.859Z,4.33
2018-12-27T00:43:52.473Z,4.44
2018-12-27T00:44:51.042Z,4.34
2018-12-27T00:45:49.584Z,4.33
2018-12-27T00:46:48.123Z,4.37
2018-12-27T00:47:46.864Z,4.47
2018-12-27T00:48:45.705Z,4.54
2018-12-27T00:49:44.203Z,4.34
2018-12-27T00:50:43.117Z,4.36
2018-12-27T00:51:41.635Z,4.41
2018-12-27T00:52:40.102Z,4.42
2018-12-27T00:53:38.641Z,4.34
2018-12-27T00:54:37.376Z,4.32
2018-12-27T00:55:35.864Z,4.32
2018-12-27T00:56:34.386Z,4.51
2018-12-27T00:57:33.383Z,4.36
2018-12-27T00:58:32.002Z,4.47
2018-12-27T00:59:30.547Z,4.37
2018-12-27T01:00:29.223Z,4.42
2018-12-27T01:01:27.735Z,4.4
2018-12-27T01:02:26.290Z,4.44
2018-12-27T01:03:24.984Z,4.23
2018-12-27T01:04:23.834Z,4.16
2018-12-27T01:05:22.378Z,4.32
2018-12-27T01:06:21.089Z,4.26
2018-12-27T01:07:19.749Z,4.36
2018-12-27T01:08:18.286Z,4.32
2018-12-27T01:09:16.805Z,4.37
2018-12-27T01:10:15.322Z,4.32
2018-12-27T01:11:13.949Z,4.37
2018-12-27T01:12:12.718Z,4.37
2018-12-27T01:13:11.444Z,4.4
2018-12-27T01:14:09.990Z,4.29
2018-12-27T01:15:08.702Z,4.29
2018-12-27T01:16:07.386Z,4.32
2018-12-27T01:17:05.934Z,4.23
2018-12-27T01:18:04.437Z,4.32
2018-12-27T01:20:44.810Z,4.34
2018-12-27T01:21:43.570Z,4.3
2018-12-27T01:22:42.169Z,4.32
2018-12-27T01:23:41.008Z,4.27
2018-12-27T01:24:39.490Z,4.27
2018-12-27T01:25:37.967Z,4.3
2018-12-27T01:26:36.478Z,4.26
2018-12-27T01:27:35.046Z,4.33
2018-12-27T01:28:33.610Z,4.36
2018-12-27T01:29:32.151Z,4.26
2018-12-27T01:30:30.821Z,4.34
2018-12-27T01:31:29.731Z,4.32
2018-12-27T01:32:28.261Z,4.27
2018-12-27T01:33:26.867Z,4.48
2018-12-27T01:34:25.499Z,4.47
2018-12-27T01:35:24.019Z,4.37
2018-12-27T01:36:22.563Z,4.54
2018-12-27T01:37:21.124Z,4.37
2018-12-27T01:38:19.666Z,4.41
2018-12-27T01:39:18.204Z,4.52
2018-12-27T01:40:16.743Z,4.5
2018-12-27T01:41:15.268Z,4.5
2018-12-27T01:42:13.824Z,4.54
2018-12-27T01:43:12.320Z,4.5
2018-12-27T01:44:10.847Z,4.47
2018-12-27T01:45:09.457Z,4.42
2018-12-27T01:46:07.931Z,4.48
2018-12-27T01:47:06.580Z,4.48
2018-12-27T01:48:05.241Z,4.55
2018-12-27T01:49:04.021Z,4.54
2018-12-27T01:50:02.729Z,4.48
2018-12-27T01:51:01.403Z,4.54
2018-12-27T01:51:59.980Z,4.52
2018-12-27T01:52:58.561Z,4.55
2018-12-27T01:53:57.270Z,4.58
2018-12-27T01:54:55.949Z,4.51
2018-12-27T01:55:54.478Z,4.58
2018-12-27T01:56:53.271Z,4.6
2018-12-27T01:57:51.823Z,4.59
2018-12-27T01:58:50.343Z,4.62
2018-12-27T01:59:48.988Z,4.51
2018-12-27T02:00:47.562Z,4.54
2018-12-27T02:01:46.111Z,4.5
2018-12-27T02:02:44.652Z,4.42
2018-12-27T02:03:43.452Z,4.5
2018-12-27T02:04:41.986Z,4.58
2018-12-27T02:05:40.561Z,4.48
2018-12-27T02:06:39.521Z,4.58
2018-12-27T02:07:38.073Z,4.65
2018-12-27T02:08:36.598Z,4.6
2018-12-27T02:09:35.150Z,4.6
2018-12-27T02:10:33.696Z,4.6
2018-12-27T02:11:32.213Z,4.6
2018-12-27T02:12:30.737Z,4.54
2018-12-27T02:13:29.291Z,4.5
2018-12-27T02:14:27.840Z,4.55
2018-12-27T02:15:26.374Z,4.54
2018-12-27T02:16:24.893Z,4.6
2018-12-27T02:17:23.415Z,4.58
2018-12-27T02:18:21.975Z,4.6
2018-12-27T02:19:20.642Z,4.51
2018-12-27T02:20:21.433Z,4.58
2018-12-27T02:21:18.080Z,4.52
2018-12-27T02:22:16.668Z,4.59
2018-12-27T02:23:15.422Z,4.58
2018-12-27T02:24:13.939Z,4.54
2018-12-27T02:25:12.484Z,4.52
2018-12-27T02:26:10.989Z,4.59
2018-12-27T02:27:09.561Z,4.58
2018-12-27T02:28:08.097Z,4.55
2018-12-27T02:29:06.823Z,4.58
2018-12-27T02:30:05.503Z,4.5
2018-12-27T02:31:04.049Z,4.52
2018-12-27T02:32:02.598Z,4.5
2018-12-27T02:33:01.369Z,4.51
2018-12-27T02:33:59.883Z,4.51
2018-12-27T02:34:58.414Z,4.48
2018-12-27T02:35:57.025Z,4.62
2018-12-27T02:36:55.643Z,4.5
2018-12-27T02:37:54.138Z,4.34
2018-12-27T02:38:52.723Z,4.45
2018-12-27T02:39:51.473Z,4.5
2018-12-27T02:40:50.006Z,4.45
2018-12-27T02:41:48.564Z,4.48
2018-12-27T02:42:47.489Z,4.41
2018-12-27T02:43:46.040Z,4.26
2018-12-27T02:44:44.573Z,4.37
2018-12-27T02:45:43.245Z,4.32
2018-12-27T02:46:41.803Z,4.34
2018-12-27T02:47:40.311Z,4.24
2018-12-27T02:48:38.847Z,4.24
2018-12-27T02:49:37.365Z,4.3
2018-12-27T02:50:35.906Z,4.41
2018-12-27T02:51:34.472Z,4.37
2018-12-27T02:52:33.091Z,4.4
2018-12-27T02:53:31.607Z,4.36
2018-12-27T02:57:10.642Z,4.36
2018-12-27T02:58:09.381Z,4.32
2018-12-27T02:59:07.914Z,4.4
2018-12-27T03:00:06.461Z,4.47
2018-12-27T03:01:04.992Z,4.37
2018-12-27T03:02:03.542Z,4.41
2018-12-27T03:03:02.068Z,4.36
2018-12-27T03:04:00.734Z,4.27
2018-12-27T03:04:59.383Z,4.27
2018-12-27T03:05:57.919Z,4.32
2018-12-27T03:06:56.471Z,4.37
2018-12-27T03:07:55.309Z,4.41
2018-12-27T03:08:53.866Z,4.5
2018-12-27T03:09:52.422Z,4.45
2018-12-27T03:10:51.017Z,4.42
2018-12-27T03:11:49.599Z,4.44
2018-12-27T03:12:48.157Z,4.37
2018-12-27T03:13:46.699Z,4.58
2018-12-27T03:14:45.230Z,4.48
2018-12-27T03:15:43.758Z,4.62
2018-12-27T03:16:42.297Z,4.63
2018-12-27T03:17:40.958Z,4.63
2018-12-27T03:18:39.602Z,4.48
2018-12-27T03:19:38.133Z,4.5
2018-12-27T03:20:36.679Z,4.36
2018-12-27T03:21:35.506Z,4.44
2018-12-27T03:22:34.086Z,4.4
2018-12-27T03:23:32.667Z,4.47
2018-12-27T03:24:31.307Z,4.3
2018-12-27T03:25:29.864Z,4.41
2018-12-27T03:26:28.383Z,4.47
2018-12-27T03:27:26.904Z,4.4
2018-12-27T03:28:25.437Z,4.47
2018-12-27T03:29:23.961Z,4.4
2018-12-27T03:30:22.481Z,4.4
2018-12-27T03:31:21.072Z,4.32
2018-12-27T03:32:19.590Z,4.3
2018-12-27T03:33:18.183Z,4.32
2018-12-27T03:34:16.874Z,4.48
2018-12-27T03:35:15.692Z,4.36
2018-12-27T03:36:14.217Z,4.33
2018-12-27T03:37:12.888Z,4.34
2018-12-27T03:38:11.574Z,4.36
2018-12-27T03:39:10.149Z,4.45
2018-12-27T03:40:08.772Z,4.24
2018-12-27T03:41:07.398Z,4.2
2018-12-27T03:42:05.902Z,4.2
2018-12-27T03:43:04.412Z,4.24
2018-12-27T03:44:03.499Z,4.26
2018-12-27T03:45:02.080Z,4.3
2018-12-27T03:46:00.593Z,4.36
2018-12-27T03:46:59.207Z,4.41
2018-12-27T03:47:57.735Z,4.4
2018-12-27T03:48:56.297Z,4.41
2018-12-27T03:49:54.832Z,4.4
2018-12-27T03:50:53.375Z,4.36
2018-12-27T03:51:51.929Z,4.24
2018-12-27T03:55:13.514Z,4.23
2018-12-27T03:56:12.005Z,4.4
2018-12-27T03:57:10.540Z,4.41
2018-12-27T03:58:09.188Z,4.44
2018-12-27T03:59:07.809Z,4.41
2018-12-27T04:00:06.306Z,4.44
2018-12-27T04:01:04.860Z,4.42
2018-12-27T04:02:03.377Z,4.36
2018-12-27T04:03:01.935Z,4.41
2018-12-27T04:04:01.478Z,4.36
2018-12-27T04:04:59.235Z,4.36
2018-12-27T04:07:39.751Z,4.42
2018-12-27T04:08:38.299Z,4.44
2018-12-27T04:09:36.821Z,4.41
2018-12-27T04:10:35.323Z,4.32
2018-12-27T04:11:33.915Z,4.27
2018-12-27T04:12:32.470Z,4.24
2018-12-27T04:13:31.203Z,4.22
2018-12-27T04:14:30.004Z,4.16
2018-12-27T04:15:28.581Z,4.29
2018-12-27T04:16:27.265Z,4.36
2018-12-27T04:17:25.779Z,4.33
2018-12-27T04:18:24.320Z,4.34
2018-12-27T04:19:22.958Z,4.4
2018-12-27T04:20:21.507Z,4.34
2018-12-27T04:21:20.050Z,4.32
2018-12-27T04:22:18.588Z,4.36
2018-12-27T04:23:17.143Z,4.27
2018-12-27T04:24:15.686Z,4.36
2018-12-27T04:36:07.293Z,4.3
2018-12-27T04:37:05.824Z,4.41
2018-12-27T04:38:04.346Z,4.41
2018-12-27T04:39:03.043Z,4.26
2018-12-27T04:40:01.630Z,4.26
2018-12-27T04:41:00.159Z,4.33
2018-12-27T04:41:58.689Z,4.27
2018-12-27T04:42:57.215Z,4.23
2018-12-27T04:43:55.762Z,4.18
2018-12-27T04:44:54.308Z,4.2
2018-12-27T04:45:52.813Z,4.37
2018-12-27T04:46:51.351Z,4.29
2018-12-27T04:47:49.926Z,4.29
2018-12-27T04:48:48.489Z,4.47
2018-12-27T04:49:47.154Z,4.42
2018-12-27T04:50:45.838Z,4.29
2018-12-27T04:51:44.387Z,4.22
2018-12-27T04:52:43.102Z,4.32
2018-12-27T04:53:41.778Z,4.34
2018-12-27T04:54:40.305Z,4.2
2018-12-27T04:55:38.847Z,4.22
2018-12-27T04:56:37.395Z,4.22
2018-12-27T04:57:35.920Z,4.29
2018-12-27T04:58:34.455Z,4.42
2018-12-27T04:59:32.986Z,4.41
2018-12-27T05:00:31.523Z,4.37
2018-12-27T05:01:30.992Z,4.32
2018-12-27T05:02:28.617Z,4.27
2018-12-27T05:03:27.177Z,4.44
2018-12-27T05:04:25.714Z,4.22
2018-12-27T05:05:24.243Z,4.18
2018-12-27T05:06:22.940Z,4.3
2018-12-27T05:07:21.712Z,4.29
2018-12-27T05:08:20.276Z,4.34
2018-12-27T05:09:18.933Z,4.34
2018-12-27T05:10:17.606Z,4.33
2018-12-27T05:11:16.128Z,4.37
2018-12-27T05:12:14.651Z,4.24
2018-12-27T05:13:13.229Z,4.26
2018-12-27T05:14:11.789Z,4.12
2018-12-27T05:15:10.301Z,4.23
2018-12-27T05:16:08.822Z,4.12
2018-12-27T05:17:07.489Z,4.24
2018-12-27T05:18:06.019Z,4.22
2018-12-27T05:19:04.571Z,4.26
2018-12-27T05:20:03.224Z,4.26
2018-12-27T05:21:01.871Z,4.41
2018-12-27T05:22:00.423Z,4.36
2018-12-27T05:22:59.172Z,4.32
2018-12-27T05:23:57.823Z,4.36
2018-12-27T05:24:56.324Z,4.41
2018-12-27T05:25:54.840Z,4.37
2018-12-27T05:26:53.387Z,4.3
2018-12-27T05:27:51.920Z,4.14
2018-12-27T05:28:50.434Z,3.98
2018-12-27T05:29:49.006Z,4.08
2018-12-27T05:30:47.519Z,4.02
2018-12-27T05:31:46.037Z,4.06
2018-12-27T05:32:44.618Z,3.96
2018-12-27T05:33:43.116Z,4.06
2018-12-27T05:34:41.611Z,4.06
2018-12-27T05:35:40.142Z,4.09
2018-12-27T05:36:38.695Z,4.04
2018-12-27T05:37:37.208Z,4.04
2018-12-27T05:38:35.747Z,4.05
2018-12-27T05:39:34.272Z,4.11
2018-12-27T05:40:32.814Z,4.08
2018-12-27T05:41:31.497Z,4.04
2018-12-27T05:42:30.083Z,4.02
2018-12-27T05:43:28.554Z,4.12
2018-12-27T05:44:27.575Z,4.05
2018-12-27T05:45:26.153Z,4.02
2018-12-27T05:46:24.722Z,3.94
2018-12-27T05:47:23.319Z,3.84
2018-12-27T05:48:21.844Z,3.84
2018-12-27T05:49:20.394Z,3.84
2018-12-27T05:50:18.920Z,3.97
2018-12-27T05:51:17.529Z,3.9
2018-12-27T05:52:16.082Z,3.93
2018-12-27T05:53:14.640Z,4.04
2018-12-27T05:54:13.561Z,4.05
2018-12-27T05:55:12.111Z,4.18
2018-12-27T05:56:10.772Z,4.04
2018-12-27T05:57:09.426Z,4
2018-12-27T05:58:08.014Z,4.15
2018-12-27T05:59:06.529Z,4.15
2018-12-27T06:00:05.084Z,4.26
2018-12-27T06:01:03.647Z,4.12
2018-12-27T06:02:02.178Z,4.11
2018-12-27T06:03:00.889Z,3.98
2018-12-27T06:03:59.800Z,4.08
2018-12-27T06:04:58.341Z,4.12
2018-12-27T06:05:57.014Z,4.05
2018-12-27T06:06:55.605Z,3.97
2018-12-27T06:07:54.164Z,4.05
2018-12-27T06:08:52.641Z,4.11
2018-12-27T06:09:51.222Z,4
2018-12-27T06:10:49.733Z,4.18
2018-12-27T06:11:48.292Z,4.18
2018-12-27T06:12:46.795Z,4.06
2018-12-27T06:13:45.360Z,4.23
2018-12-27T06:14:43.873Z,4.18
2018-12-27T06:15:42.447Z,4.24
2018-12-27T06:16:41.216Z,4.14
2018-12-27T06:17:39.900Z,4.22
2018-12-27T06:18:38.452Z,4.24
2018-12-27T06:19:37.137Z,4.22
2018-12-27T06:20:35.815Z,4.15
2018-12-27T06:21:34.370Z,4.04
2018-12-27T06:22:32.872Z,4.05
2018-12-27T06:23:31.424Z,4
2018-12-27T06:24:29.980Z,3.8
2018-12-27T06:25:28.522Z,3.87
2018-12-27T06:26:27.061Z,3.98
2018-12-27T06:27:25.634Z,4.08
2018-12-27T06:28:24.161Z,4.12
2018-12-27T06:29:22.829Z,4.05
2018-12-27T06:30:21.664Z,3.96
2018-12-27T06:31:20.259Z,3.97
2018-12-27T06:32:18.960Z,3.94
2018-12-27T06:33:17.536Z,3.94
2018-12-27T06:34:16.106Z,4
2018-12-27T06:35:14.595Z,4.09
2018-12-27T06:36:13.138Z,4.14
2018-12-27T06:37:11.634Z,4
2018-12-27T06:38:10.177Z,4.08
2018-12-27T06:39:08.703Z,4.24
2018-12-27T06:40:07.256Z,4.12
2018-12-27T06:42:47.597Z,4.18
2018-12-27T06:43:46.168Z,4.15
2018-12-27T06:44:44.953Z,4.26
2018-12-27T06:45:43.677Z,4.2
2018-12-27T06:46:42.208Z,4.18
2018-12-27T06:47:40.794Z,4.24
2018-12-27T06:48:39.303Z,4.23
2018-12-27T06:49:37.867Z,4.22
2018-12-27T06:50:36.394Z,4.23
2018-12-27T06:51:35.164Z,4.4
2018-12-27T06:52:33.842Z,4.44
2018-12-27T06:53:32.417Z,4.36
2018-12-27T06:54:31.195Z,4.33
2018-12-27T06:55:29.866Z,4.3
2018-12-27T06:56:28.404Z,4.26
2018-12-27T06:57:26.957Z,4.15
2018-12-27T06:58:25.524Z,4.12
2018-12-27T06:59:24.038Z,4.23
2018-12-27T07:02:45.693Z,4.15
2018-12-27T07:03:44.282Z,4.18
2018-12-27T07:04:48.822Z,4.18
2018-12-27T07:05:41.345Z,4.05
2018-12-27T07:06:39.887Z,4.04
2018-12-27T07:07:38.406Z,4.05
2018-12-27T07:08:37.305Z,4.09
2018-12-27T07:09:35.909Z,4.12
2018-12-27T07:10:34.542Z,4.14
2018-12-27T07:11:33.337Z,4
2018-12-27T07:12:32.077Z,3.93
2018-12-27T07:13:30.811Z,3.86
2018-12-27T07:14:29.579Z,3.8
2018-12-27T07:15:28.145Z,3.78
2018-12-27T07:16:26.798Z,3.75
2018-12-27T07:17:25.526Z,3.8
2018-12-27T07:18:24.068Z,3.8
2018-12-27T07:19:22.572Z,3.88
2018-12-27T07:20:21.096Z,3.9
2018-12-27T07:21:19.651Z,3.8
2018-12-27T07:22:18.191Z,3.84
2018-12-27T07:23:16.707Z,3.86
2018-12-27T07:24:15.388Z,3.96
2018-12-27T07:25:13.932Z,4
2018-12-27T07:26:12.435Z,4.11
2018-12-27T07:27:11.077Z,4.06
2018-12-27T07:28:09.692Z,4.06
2018-12-27T07:29:08.236Z,4.12
2018-12-27T07:30:06.778Z,4
2018-12-27T07:31:05.548Z,4.11
2018-12-27T07:32:04.081Z,4.2
2018-12-27T07:33:04.183Z,4.24
2018-12-27T07:34:01.285Z,4.08
2018-12-27T07:34:59.832Z,4.18
2018-12-27T07:35:58.366Z,4.23
2018-12-27T07:36:56.898Z,4.26
2018-12-27T07:37:55.422Z,4.24
2018-12-27T07:38:53.958Z,4.26
2018-12-27T07:39:52.494Z,4.24
2018-12-27T07:40:51.280Z,4.18
2018-12-27T07:41:49.938Z,4.29
2018-12-27T07:42:48.461Z,4.33
2018-12-27T07:43:47.248Z,4.41
2018-12-27T07:44:45.798Z,4.34
2018-12-27T07:45:44.317Z,4.44
2018-12-27T07:46:42.935Z,4.32
2018-12-27T07:47:41.649Z,4.52
2018-12-27T07:48:40.255Z,4.42
2018-12-27T07:49:38.964Z,4.41
2018-12-27T07:50:37.779Z,4.37
2018-12-27T07:51:36.311Z,4.15
2018-12-27T07:52:35.002Z,4.22
2018-12-27T07:53:33.668Z,4.11
2018-12-27T07:54:32.149Z,4.11
2018-12-27T07:55:30.701Z,4.08
2018-12-27T07:56:29.350Z,4.11
2018-12-27T07:57:27.921Z,4.2
2018-12-27T07:58:26.515Z,4.29
2018-12-27T07:59:25.527Z,4.22
2018-12-27T08:00:24.051Z,4.32
2018-12-27T08:01:22.601Z,4.37
2018-12-27T08:02:21.217Z,4.29
2018-12-27T08:03:19.804Z,4.23
2018-12-27T08:04:18.359Z,4.26
2018-12-27T08:05:16.852Z,4.36
2018-12-27T08:06:15.424Z,4.3
2018-12-27T08:07:14.035Z,4.44
2018-12-27T08:08:12.630Z,4.44
2018-12-27T08:09:11.263Z,4.42
2018-12-27T08:10:09.986Z,4.36
2018-12-27T08:11:08.563Z,4.3
2018-12-27T08:12:07.256Z,4.22
2018-12-27T08:13:05.912Z,4.23
2018-12-27T08:14:04.435Z,4.12
2018-12-27T08:15:03.021Z,4.16
2018-12-27T08:16:01.546Z,4.23
2018-12-27T08:17:00.112Z,4.29
2018-12-27T08:17:58.634Z,4.3
2018-12-27T08:18:57.399Z,4.44
2018-12-27T08:19:55.991Z,4.34
2018-12-27T08:20:54.529Z,4.16
2018-12-27T08:21:53.114Z,4.11
2018-12-27T08:22:51.790Z,4.04
2018-12-27T08:23:50.344Z,4.02
2018-12-27T08:24:49.026Z,4.05
2018-12-27T08:25:47.687Z,4.18
2018-12-27T08:26:46.247Z,4.16
2018-12-27T08:27:45.030Z,4.24
2018-12-27T08:28:43.773Z,4.23
2018-12-27T08:29:42.308Z,4.23
2018-12-27T08:30:40.862Z,4.26
2018-12-27T08:31:39.565Z,4.32
2018-12-27T08:32:38.121Z,4.34
2018-12-27T08:33:36.682Z,4.33
2018-12-27T08:34:35.279Z,4.24
2018-12-27T08:35:33.782Z,4.34
2018-12-27T08:36:32.338Z,4.37
2018-12-27T08:37:30.866Z,4.41
2018-12-27T08:38:29.452Z,4.37
2018-12-27T08:39:27.987Z,4.45
2018-12-27T08:40:26.497Z,4.5
2018-12-27T08:41:25.185Z,4.55
2018-12-27T08:42:23.856Z,4.37
2018-12-27T08:43:22.427Z,4.34
2018-12-27T08:44:21.294Z,4.23
2018-12-27T08:45:20.135Z,4.2
2018-12-27T08:46:18.788Z,4.11
2018-12-27T08:47:17.620Z,4.18
2018-12-27T08:48:16.164Z,4.06
2018-12-27T08:49:14.842Z,3.94
2018-12-27T08:50:13.502Z,3.65
2018-12-27T08:51:12.180Z,3.62
2018-12-27T08:52:10.922Z,3.51
2018-12-27T08:53:09.802Z,3.61
2018-12-27T08:54:08.289Z,3.51
2018-12-27T08:55:06.973Z,3.66
2018-12-27T08:56:05.708Z,3.58
2018-12-27T08:57:04.232Z,3.57
2018-12-27T08:58:02.758Z,3.78
2018-12-27T08:59:01.319Z,3.58
2018-12-27T08:59:59.834Z,3.65
2018-12-27T09:00:58.385Z,3.78
2018-12-27T09:01:56.900Z,3.9
2018-12-27T09:02:55.572Z,3.84
2018-12-27T09:03:54.127Z,4.05
2018-12-27T09:04:52.699Z,3.79
2018-12-27T09:05:51.591Z,3.65
2018-12-27T09:06:50.097Z,3.72
2018-12-27T09:07:48.620Z,3.72
2018-12-27T09:08:47.317Z,3.8
2018-12-27T09:09:45.848Z,3.57
2018-12-27T09:10:44.404Z,3.42
2018-12-27T09:11:42.993Z,3.57
2018-12-27T09:12:41.563Z,3.65
2018-12-27T09:13:40.120Z,3.7
2018-12-27T09:14:38.672Z,3.54
2018-12-27T09:15:37.306Z,3.72
2018-12-27T09:16:35.974Z,3.8
2018-12-27T09:17:34.544Z,3.83
2018-12-27T09:18:33.542Z,3.7
2018-12-27T09:19:32.048Z,3.7
2018-12-27T09:20:30.606Z,3.83
2018-12-27T09:21:29.099Z,3.75
2018-12-27T09:22:27.661Z,4
2018-12-27T09:23:26.342Z,4
2018-12-27T09:24:25.007Z,4.18
2018-12-27T09:25:23.838Z,4.24
2018-12-27T09:26:22.420Z,4.23
2018-12-27T09:27:21.130Z,4.29
2018-12-27T09:28:19.687Z,3.98
2018-12-27T09:29:18.226Z,4.02
2018-12-27T09:30:16.766Z,3.91
2018-12-27T09:31:15.553Z,4
2018-12-27T09:32:14.094Z,4.14
2018-12-27T09:33:12.898Z,4.29
2018-12-27T09:34:11.645Z,4.69
2018-12-27T09:35:10.203Z,5.33
2018-12-27T09:36:08.698Z,4.8
2018-12-27T09:37:07.344Z,4.59
2018-12-27T09:38:05.917Z,4.27
2018-12-27T09:39:04.473Z,4.32
2018-12-27T09:40:03.166Z,4.36
2018-12-27T09:41:01.878Z,4.4
2018-12-27T09:42:00.399Z,4.48
2018-12-27T09:42:59.162Z,4.6
2018-12-27T09:43:57.941Z,4.63
2018-12-27T09:44:56.675Z,4.6
2018-12-27T09:45:55.570Z,4.58
2018-12-27T09:46:54.125Z,4.66
2018-12-27T09:47:52.719Z,4.65
2018-12-27T09:48:51.354Z,4.6
2018-12-27T09:49:49.974Z,4.41
2018-12-27T09:50:48.465Z,4.52
2018-12-27T09:51:46.973Z,4.69
2018-12-27T09:52:45.577Z,4.59
2018-12-27T09:53:44.154Z,4.6
2018-12-27T09:54:42.897Z,4.33
2018-12-27T09:55:41.774Z,4.32
2018-12-27T09:56:40.297Z,4.42
2018-12-27T09:57:38.968Z,4.44
2018-12-27T09:58:37.683Z,4.47
2018-12-27T09:59:36.210Z,4.59
2018-12-27T10:00:34.757Z,4.63
2018-12-27T10:01:33.550Z,4.6
2018-12-27T10:02:32.108Z,4.65
2018-12-27T10:03:32.790Z,4.75
2018-12-27T10:04:31.690Z,4.65
2018-12-27T10:05:33.670Z,4.69
2018-12-27T10:06:29.028Z,4.55
2018-12-27T10:07:27.846Z,4.51
2018-12-27T10:08:26.417Z,4.58
2018-12-27T10:09:25.044Z,4.67
2018-12-27T10:10:23.791Z,4.65
2018-12-27T10:11:22.332Z,4.66
2018-12-27T10:12:21.083Z,4.7
2018-12-27T10:13:19.729Z,4.67
2018-12-27T10:14:18.282Z,4.6
2018-12-27T10:15:17.087Z,4.62
2018-12-27T10:16:15.823Z,4.51
2018-12-27T10:17:14.379Z,4.63
2018-12-27T10:18:12.942Z,4.48
2018-12-27T10:19:11.566Z,4.58
2018-12-27T10:20:10.098Z,4.51
2018-12-27T10:21:08.691Z,4.69
2018-12-27T10:22:07.547Z,4.54
2018-12-27T10:23:06.146Z,4.33
2018-12-27T10:24:04.699Z,4.33
2018-12-27T10:25:03.392Z,4.14
2018-12-27T10:26:02.055Z,4.12
2018-12-27T10:27:00.734Z,4.12
2018-12-27T10:27:59.405Z,4.3
2018-12-27T10:28:58.081Z,4.34
2018-12-27T10:29:56.723Z,4.5
2018-12-27T10:30:59.683Z,4.27
2018-12-27T10:31:54.010Z,4.23
2018-12-27T10:32:52.591Z,4.33
2018-12-27T10:33:51.207Z,4.52
2018-12-27T10:34:49.712Z,4.77
2018-12-27T10:35:48.290Z,5.31
2018-12-27T10:36:47.040Z,5.27
2018-12-27T10:37:45.851Z,5.09
2018-12-27T10:38:44.487Z,4.89
2018-12-27T10:39:43.093Z,4.72
2018-12-27T10:40:41.735Z,4.55
2018-12-27T10:41:40.212Z,4.24
2018-12-27T10:42:38.703Z,4.36
2018-12-27T10:43:37.287Z,4.5
2018-12-27T10:44:35.867Z,4.55
2018-12-27T10:45:34.529Z,4.52
2018-12-27T10:46:33.193Z,4.55
2018-12-27T10:47:31.901Z,4.63
2018-12-27T10:48:30.590Z,4.66
2018-12-27T10:49:29.451Z,4.66
2018-12-27T10:50:27.998Z,4.72
2018-12-27T10:51:26.613Z,4.66
2018-12-27T10:52:25.301Z,4.75
2018-12-27T10:53:23.915Z,4.78
2018-12-27T10:54:22.494Z,4.59
2018-12-27T10:55:21.280Z,4.44
2018-12-27T10:56:19.906Z,4.52
2018-12-27T10:57:18.523Z,4.51
2018-12-27T10:58:17.392Z,4.58
2018-12-27T10:59:16.065Z,4.66
2018-12-27T11:00:14.618Z,4.62
2018-12-27T11:01:13.367Z,4.48
2018-12-27T11:02:11.912Z,4.58
2018-12-27T11:03:10.579Z,4.54
2018-12-27T11:04:09.442Z,4.62
2018-12-27T11:05:08.075Z,4.65
2018-12-27T11:06:06.606Z,4.6
2018-12-27T11:07:05.554Z,4.47
2018-12-27T11:08:04.118Z,4.29
2018-12-27T11:09:02.755Z,4.18
2018-12-27T11:10:01.248Z,4.09
2018-12-27T11:10:59.807Z,4.16
2018-12-27T11:11:58.321Z,4.33
2018-12-27T11:12:57.119Z,4.24
2018-12-27T11:13:55.835Z,4.29
2018-12-27T11:14:54.340Z,4.22
2018-12-27T11:15:53.095Z,4.33
2018-12-27T11:16:51.709Z,4.34
2018-12-27T11:17:50.308Z,4.51
2018-12-27T11:18:48.786Z,4.63
2018-12-27T11:19:47.407Z,4.62
2018-12-27T11:20:45.879Z,4.6
2018-12-27T11:21:44.434Z,4.65
2018-12-27T11:22:42.992Z,4.65
2018-12-27T11:23:41.659Z,4.62
2018-12-27T11:24:40.210Z,4.59
2018-12-27T11:25:38.779Z,4.58
2018-12-27T11:26:37.563Z,4.37
2018-12-27T11:27:36.083Z,4.32
2018-12-27T11:28:34.735Z,4.29
2018-12-27T11:29:33.430Z,4.42
2018-12-27T11:30:31.959Z,4.42
2018-12-27T11:31:30.558Z,4.51
2018-12-27T11:32:28.982Z,4.55
2018-12-27T11:33:27.514Z,4.58
2018-12-27T11:34:26.078Z,4.72
2018-12-27T11:35:24.597Z,4.73
2018-12-27T11:36:23.124Z,4.69
2018-12-27T11:37:21.662Z,4.69
2018-12-27T11:38:20.226Z,4.63
2018-12-27T11:39:18.877Z,4.33
2018-12-27T11:40:17.509Z,4.4
2018-12-27T11:41:16.102Z,4.34
2018-12-27T11:42:14.601Z,4.41
2018-12-27T11:43:13.483Z,4.42
2018-12-27T11:44:12.055Z,4.4
2018-12-27T11:45:10.569Z,4.51
2018-12-27T11:46:09.260Z,4.65
2018-12-27T11:47:07.845Z,4.63
2018-12-27T11:48:06.419Z,4.47
2018-12-27T11:49:04.943Z,4.41
2018-12-27T11:50:03.701Z,4.6
2018-12-27T11:51:02.266Z,4.6
2018-12-27T11:52:01.162Z,4.66
2018-12-27T11:52:59.880Z,4.85
2018-12-27T11:53:58.454Z,4.89
2018-12-27T11:54:56.952Z,4.91
2018-12-27T11:55:55.517Z,4.94
2018-12-27T11:56:54.184Z,4.75
2018-12-27T11:57:52.812Z,4.65
2018-12-27T11:58:51.639Z,4.63
2018-12-27T11:59:50.219Z,4.62
2018-12-27T12:00:48.936Z,4.48
2018-12-27T12:01:47.536Z,4.52
2018-12-27T12:02:46.135Z,4.54
2018-12-27T12:03:44.909Z,4.65
2018-12-27T12:04:43.695Z,4.55
2018-12-27T12:05:42.257Z,4.48
2018-12-27T12:06:40.970Z,4.6
2018-12-27T12:07:39.624Z,4.6
2018-12-27T12:08:38.349Z,4.7
2018-12-27T12:09:37.027Z,4.5
2018-12-27T12:10:35.824Z,4.42
2018-12-27T12:11:34.326Z,4.4
2018-12-27T12:12:32.978Z,4.36
2018-12-27T12:13:31.682Z,4.37
2018-12-27T12:14:30.283Z,4.55
2018-12-27T12:15:29.126Z,4.51
2018-12-27T12:16:27.902Z,4.54
2018-12-27T12:17:26.486Z,4.65
2018-12-27T12:18:25.236Z,4.73
2018-12-27T12:19:23.880Z,4.5
2018-12-27T12:20:22.478Z,4.54
2018-12-27T12:21:20.920Z,4.51
2018-12-27T12:22:19.715Z,4.54
2018-12-27T12:23:18.234Z,4.36
2018-12-27T12:24:17.001Z,4.37
2018-12-27T12:25:15.632Z,4.44
2018-12-27T12:26:14.248Z,4.29
2018-12-27T12:27:12.739Z,4.37
2018-12-27T12:29:28.690Z,4.27
2018-12-27T12:30:27.403Z,4.26
2018-12-27T12:31:25.988Z,4.18
2018-12-27T12:32:24.626Z,4.33
2018-12-27T12:33:23.315Z,4.36
2018-12-27T12:34:21.927Z,4.34
2018-12-27T12:35:20.460Z,4.44
2018-12-27T12:36:19.089Z,4.42
2018-12-27T12:37:17.597Z,4.27
2018-12-27T12:38:16.122Z,4.4
2018-12-27T12:39:15.716Z,4.6
2018-12-27T12:41:57.350Z,4.54
2018-12-27T12:42:54.948Z,4.6
2018-12-27T12:43:53.540Z,4.55
2018-12-27T12:44:52.049Z,4.58
2018-12-27T12:45:50.578Z,4.52
2018-12-27T12:46:49.119Z,4.54
2018-12-27T12:47:47.752Z,4.51
2018-12-27T12:48:46.314Z,4.55
2018-12-27T12:49:45.053Z,4.63
2018-12-27T12:50:43.836Z,4.58
2018-12-27T12:51:42.379Z,4.52
2018-12-27T12:52:41.012Z,4.5
2018-12-27T12:53:39.684Z,4.54
2018-12-27T12:54:38.281Z,4.52
2018-12-27T12:55:36.924Z,4.6
2018-12-27T12:56:35.714Z,4.67
2018-12-27T12:57:34.258Z,4.67
2018-12-27T13:00:14.567Z,4.66
2018-12-27T13:03:35.803Z,4.7
2018-12-27T13:04:34.317Z,4.69
2018-12-27T13:05:33.046Z,4.73
2018-12-27T13:06:31.839Z,4.59
2018-12-27T13:07:30.378Z,4.69
2018-12-27T13:08:29.082Z,4.69
2018-12-27T13:09:27.713Z,4.6
2018-12-27T13:10:26.294Z,4.65
2018-12-27T13:11:24.822Z,4.36
2018-12-27T13:12:23.419Z,4.51
2018-12-27T13:13:21.943Z,4.58
2018-12-27T13:14:20.499Z,4.62
2018-12-27T13:15:19.150Z,4.58
2018-12-27T13:16:17.896Z,4.63
2018-12-27T13:17:16.534Z,4.62
2018-12-27T13:18:15.154Z,4.59
2018-12-27T13:19:13.826Z,4.55
2018-12-27T13:20:12.349Z,4.63
2018-12-27T13:21:11.367Z,4.48
2018-12-27T13:22:10.245Z,4.51
2018-12-27T13:23:08.810Z,4.47
2018-12-27T13:24:08.134Z,4.44
2018-12-27T13:25:06.736Z,4.51
2018-12-27T13:26:05.383Z,4.52
2018-12-27T13:27:03.960Z,4.54
2018-12-27T13:28:02.503Z,4.59
2018-12-27T13:29:01.213Z,4.58
2018-12-27T13:29:59.751Z,4.6
2018-12-27T13:30:58.412Z,4.72
2018-12-27T13:31:57.020Z,4.78
2018-12-27T13:32:55.769Z,4.77
2018-12-27T13:33:54.337Z,4.7
2018-12-27T13:34:53.007Z,4.67
2018-12-27T13:35:51.742Z,4.72
2018-12-27T13:36:50.334Z,4.89